<?xml version="1.0" encoding="UTF-8" standalone="no" ?>
<gpx xmlns="http://www.topografix.com/GPX/1/1" xmlns:xsi="http://www.w3.org/2001/XMLSchema-instance" xsi:schemaLocation="http://www.topografix.com/GPX/1/1 http://www.topografix.com/GPX/1/1/gpx.xsd" version="1.1" creator="VisuGPX - https://www.visugpx.com">
  <metadata>
    <name>Trizay : Arnoult20km +Lac12km</name>
    <desc><![CDATA[ORuNddu7me gnerando]]></desc>
  </metadata>
  <wpt lat="45.88205" lon="-0.91306">
    <ele>12</ele>
    <name><![CDATA[Pique-nique]]></name>
    <desc><![CDATA[Pique-nique commun]]></desc>
    <type><![CDATA[picnic]]></type>
  </wpt>
  <trk>
    <name><![CDATA[Randonnée en boucle de l'arnoult 12 km_2]]></name>
    <extensions>
      <line xmlns="http://www.topografix.com/GPX/gpx_style/0/2">
        <color>0000ff</color>
        <width>4</width>
      </line>
    </extensions>
    <trkseg>
      <trkpt lat="45.88313" lon="-0.89875">
        <ele>12.30667</ele>
        <time>2025-05-06T11:16:19.000Z</time>
        <extensions>
          <visugpx:TrkExtension xmlns:visugpx="https://www.visugpx.com/editgpx/">
            <visugpx:node>1</visugpx:node>
            </visugpx:TrkExtension>
        </extensions>
      </trkpt>
      <trkpt lat="45.88264" lon="-0.89898">
        <ele>12.50957</ele>
        <time>2025-05-06T11:17:10.537Z</time>
      </trkpt>
      <trkpt lat="45.88241" lon="-0.89919">
        <ele>12.09467</ele>
        <time>2025-05-06T11:17:36.233Z</time>
      </trkpt>
      <trkpt lat="45.882" lon="-0.89947">
        <ele>11.13034</ele>
        <time>2025-05-06T11:18:18.269Z</time>
      </trkpt>
      <trkpt lat="45.88161" lon="-0.89959">
        <ele>10.3012</ele>
        <time>2025-05-06T11:18:55.251Z</time>
      </trkpt>
      <trkpt lat="45.88142" lon="-0.89955">
        <ele>9.99064</ele>
        <time>2025-05-06T11:19:13.305Z</time>
      </trkpt>
      <trkpt lat="45.88126" lon="-0.89946">
        <ele>9.54523</ele>
        <time>2025-05-06T11:19:28.994Z</time>
      </trkpt>
      <trkpt lat="45.88044" lon="-0.89939">
        <ele>6.77261</ele>
        <time>2025-05-06T11:20:42.277Z</time>
      </trkpt>
      <trkpt lat="45.88034" lon="-0.89935">
        <ele>6.99329</ele>
        <time>2025-05-06T11:20:53.233Z</time>
      </trkpt>
      <trkpt lat="45.88004" lon="-0.89943">
        <ele>7.60148</ele>
        <time>2025-05-06T11:21:25.301Z</time>
      </trkpt>
      <trkpt lat="45.87976" lon="-0.89945">
        <ele>9.32497</ele>
        <time>2025-05-06T11:21:59.009Z</time>
      </trkpt>
      <trkpt lat="45.87959" lon="-0.8996">
        <ele>10.9397</ele>
        <time>2025-05-06T11:22:24.621Z</time>
      </trkpt>
      <trkpt lat="45.87937" lon="-0.90096">
        <ele>11.26943</ele>
        <time>2025-05-06T11:24:01.636Z</time>
      </trkpt>
      <trkpt lat="45.87934" lon="-0.9011">
        <ele>11.45196</ele>
        <time>2025-05-06T11:24:12.285Z</time>
      </trkpt>
      <trkpt lat="45.87928" lon="-0.90117">
        <ele>11.71476</ele>
        <time>2025-05-06T11:24:20.781Z</time>
      </trkpt>
      <trkpt lat="45.87883" lon="-0.90136">
        <ele>12.56647</ele>
        <time>2025-05-06T11:25:09.801Z</time>
      </trkpt>
      <trkpt lat="45.8784" lon="-0.90144">
        <ele>12.89006</ele>
        <time>2025-05-06T11:25:53.626Z</time>
      </trkpt>
      <trkpt lat="45.87783" lon="-0.90163">
        <ele>12.53827</ele>
        <time>2025-05-06T11:26:50.365Z</time>
      </trkpt>
      <trkpt lat="45.87641" lon="-0.90231">
        <ele>9.39443</ele>
        <time>2025-05-06T11:29:09.064Z</time>
      </trkpt>
      <trkpt lat="45.8761" lon="-0.90238">
        <ele>9.10023</ele>
        <time>2025-05-06T11:29:39.182Z</time>
      </trkpt>
      <trkpt lat="45.87598" lon="-0.90249">
        <ele>9.88379</ele>
        <time>2025-05-06T11:29:55.938Z</time>
      </trkpt>
      <trkpt lat="45.87583" lon="-0.90275">
        <ele>10.50328</ele>
        <time>2025-05-06T11:30:21.153Z</time>
      </trkpt>
      <trkpt lat="45.87564" lon="-0.90295">
        <ele>10.88151</ele>
        <time>2025-05-06T11:30:45.610Z</time>
      </trkpt>
      <trkpt lat="45.87544" lon="-0.90326">
        <ele>11.5582</ele>
        <time>2025-05-06T11:31:16.836Z</time>
      </trkpt>
      <trkpt lat="45.87525" lon="-0.90345">
        <ele>11.82592</ele>
        <time>2025-05-06T11:31:40.537Z</time>
      </trkpt>
      <trkpt lat="45.87498" lon="-0.90357">
        <ele>11.80243</ele>
        <time>2025-05-06T11:32:08.381Z</time>
      </trkpt>
      <trkpt lat="45.87476" lon="-0.90363">
        <ele>11.6264</ele>
        <time>2025-05-06T11:32:29.972Z</time>
      </trkpt>
      <trkpt lat="45.87419" lon="-0.90359">
        <ele>11.43279</ele>
        <time>2025-05-06T11:33:25.753Z</time>
      </trkpt>
      <trkpt lat="45.87379" lon="-0.90352">
        <ele>11.53485</ele>
        <time>2025-05-06T11:34:05.864Z</time>
      </trkpt>
      <trkpt lat="45.87342" lon="-0.90336">
        <ele>11.68282</ele>
        <time>2025-05-06T11:34:44.482Z</time>
      </trkpt>
      <trkpt lat="45.87322" lon="-0.90335">
        <ele>11.93374</ele>
        <time>2025-05-06T11:35:05.032Z</time>
      </trkpt>
      <trkpt lat="45.87314" lon="-0.90345">
        <ele>11.96007</ele>
        <time>2025-05-06T11:35:15.587Z</time>
      </trkpt>
      <trkpt lat="45.87308" lon="-0.90368">
        <ele>11.93259</ele>
        <time>2025-05-06T11:35:32.394Z</time>
      </trkpt>
      <trkpt lat="45.87305" lon="-0.90438">
        <ele>12.36295</ele>
        <time>2025-05-06T11:36:21.957Z</time>
      </trkpt>
      <trkpt lat="45.87299" lon="-0.90447">
        <ele>12.55378</ele>
        <time>2025-05-06T11:36:31.134Z</time>
      </trkpt>
      <trkpt lat="45.87286" lon="-0.90454">
        <ele>12.75072</ele>
        <time>2025-05-06T11:36:45.464Z</time>
      </trkpt>
      <trkpt lat="45.87194" lon="-0.90476">
        <ele>14.29762</ele>
        <time>2025-05-06T11:38:22.459Z</time>
      </trkpt>
      <trkpt lat="45.87177" lon="-0.90471">
        <ele>14.57925</ele>
        <time>2025-05-06T11:38:40.485Z</time>
      </trkpt>
      <trkpt lat="45.87141" lon="-0.90448">
        <ele>14.75673</ele>
        <time>2025-05-06T11:39:19.946Z</time>
      </trkpt>
      <trkpt lat="45.8712" lon="-0.90445">
        <ele>14.88911</ele>
        <time>2025-05-06T11:39:41.198Z</time>
      </trkpt>
      <trkpt lat="45.87077" lon="-0.90429">
        <ele>15.65259</ele>
        <time>2025-05-06T11:40:27.480Z</time>
      </trkpt>
      <trkpt lat="45.87002" lon="-0.9039">
        <ele>17.40758</ele>
        <time>2025-05-06T11:41:51.862Z</time>
      </trkpt>
      <trkpt lat="45.86942" lon="-0.90413">
        <ele>17.79976</ele>
        <time>2025-05-06T11:42:54.407Z</time>
      </trkpt>
      <trkpt lat="45.86903" lon="-0.90412">
        <ele>17.54312</ele>
        <time>2025-05-06T11:43:32.163Z</time>
      </trkpt>
      <trkpt lat="45.86835" lon="-0.90433">
        <ele>16.19632</ele>
        <time>2025-05-06T11:44:36.932Z</time>
      </trkpt>
      <trkpt lat="45.86808" lon="-0.9046">
        <ele>16.44174</ele>
        <time>2025-05-06T11:45:10.185Z</time>
      </trkpt>
      <trkpt lat="45.8679" lon="-0.90485">
        <ele>16.82798</ele>
        <time>2025-05-06T11:45:36.132Z</time>
      </trkpt>
      <trkpt lat="45.86766" lon="-0.90496">
        <ele>17.06034</ele>
        <time>2025-05-06T11:46:01.735Z</time>
      </trkpt>
      <trkpt lat="45.86728" lon="-0.90537">
        <ele>16.72996</ele>
        <time>2025-05-06T11:46:47.690Z</time>
      </trkpt>
      <trkpt lat="45.86682" lon="-0.90554">
        <ele>14.53947</ele>
        <time>2025-05-06T11:47:28.739Z</time>
      </trkpt>
      <trkpt lat="45.86637" lon="-0.90531">
        <ele>14.11371</ele>
        <time>2025-05-06T11:48:14.646Z</time>
      </trkpt>
      <trkpt lat="45.8662" lon="-0.90517">
        <ele>13.81284</ele>
        <time>2025-05-06T11:48:33.116Z</time>
      </trkpt>
      <trkpt lat="45.86608" lon="-0.905">
        <ele>14.47746</ele>
        <time>2025-05-06T11:48:51.971Z</time>
      </trkpt>
      <trkpt lat="45.86568" lon="-0.90478">
        <ele>14.13517</ele>
        <time>2025-05-06T11:49:33.253Z</time>
      </trkpt>
      <trkpt lat="45.86558" lon="-0.90466">
        <ele>15.20443</ele>
        <time>2025-05-06T11:49:50.046Z</time>
      </trkpt>
      <trkpt lat="45.86536" lon="-0.90459">
        <ele>14.87522</ele>
        <time>2025-05-06T11:50:11.332Z</time>
      </trkpt>
      <trkpt lat="45.86523" lon="-0.9045">
        <ele>14.87805</ele>
        <time>2025-05-06T11:50:25.595Z</time>
      </trkpt>
      <trkpt lat="45.86508" lon="-0.90433">
        <ele>15.72176</ele>
        <time>2025-05-06T11:50:47.298Z</time>
      </trkpt>
      <trkpt lat="45.86497" lon="-0.90409">
        <ele>17.43335</ele>
        <time>2025-05-06T11:51:13.391Z</time>
      </trkpt>
      <trkpt lat="45.86483" lon="-0.90394">
        <ele>18.04277</ele>
        <time>2025-05-06T11:51:32.644Z</time>
      </trkpt>
      <trkpt lat="45.8646" lon="-0.90347">
        <ele>19.00455</ele>
        <time>2025-05-06T11:52:15.237Z</time>
      </trkpt>
      <trkpt lat="45.86431" lon="-0.90317">
        <ele>19.39657</ele>
        <time>2025-05-06T11:52:51.758Z</time>
      </trkpt>
      <trkpt lat="45.86417" lon="-0.90292">
        <ele>19.87734</ele>
        <time>2025-05-06T11:53:15.355Z</time>
      </trkpt>
      <trkpt lat="45.86406" lon="-0.90234">
        <ele>21.0417</ele>
        <time>2025-05-06T11:54:00.464Z</time>
      </trkpt>
      <trkpt lat="45.86391" lon="-0.9021">
        <ele>21.37713</ele>
        <time>2025-05-06T11:54:23.698Z</time>
      </trkpt>
      <trkpt lat="45.86388" lon="-0.90193">
        <ele>21.4808</ele>
        <time>2025-05-06T11:54:36.081Z</time>
      </trkpt>
      <trkpt lat="45.86382" lon="-0.90189">
        <ele>21.49346</ele>
        <time>2025-05-06T11:54:42.653Z</time>
      </trkpt>
      <trkpt lat="45.86383" lon="-0.90166">
        <ele>21.5214</ele>
        <time>2025-05-06T11:54:58.588Z</time>
      </trkpt>
      <trkpt lat="45.86376" lon="-0.90159">
        <ele>21.50963</ele>
        <time>2025-05-06T11:55:06.977Z</time>
      </trkpt>
      <trkpt lat="45.8637" lon="-0.90118">
        <ele>21.38378</ele>
        <time>2025-05-06T11:55:35.414Z</time>
      </trkpt>
      <trkpt lat="45.86375" lon="-0.90104">
        <ele>21.34444</ele>
        <time>2025-05-06T11:55:46.117Z</time>
      </trkpt>
      <trkpt lat="45.86362" lon="-0.90087">
        <ele>21.28961</ele>
        <time>2025-05-06T11:56:03.317Z</time>
      </trkpt>
      <trkpt lat="45.8636" lon="-0.90066">
        <ele>21.16359</ele>
        <time>2025-05-06T11:56:17.519Z</time>
      </trkpt>
      <trkpt lat="45.86355" lon="-0.90055">
        <ele>21.10307</ele>
        <time>2025-05-06T11:56:26.372Z</time>
      </trkpt>
      <trkpt lat="45.8636" lon="-0.9002">
        <ele>20.98706</ele>
        <time>2025-05-06T11:56:50.597Z</time>
      </trkpt>
      <trkpt lat="45.86357" lon="-0.89992">
        <ele>20.7885</ele>
        <time>2025-05-06T11:57:09.491Z</time>
      </trkpt>
      <trkpt lat="45.86345" lon="-0.89954">
        <ele>20.78435</ele>
        <time>2025-05-06T11:57:38.176Z</time>
      </trkpt>
      <trkpt lat="45.86353" lon="-0.89932">
        <ele>20.78202</ele>
        <time>2025-05-06T11:57:55.240Z</time>
      </trkpt>
      <trkpt lat="45.86349" lon="-0.89897">
        <ele>20.88014</ele>
        <time>2025-05-06T11:58:19.935Z</time>
      </trkpt>
      <trkpt lat="45.86338" lon="-0.89869">
        <ele>20.94049</ele>
        <time>2025-05-06T11:58:42.231Z</time>
      </trkpt>
      <trkpt lat="45.86338" lon="-0.89831">
        <ele>21.01039</ele>
        <time>2025-05-06T11:59:08.581Z</time>
      </trkpt>
      <trkpt lat="45.86323" lon="-0.89801">
        <ele>20.846</ele>
        <time>2025-05-06T11:59:33.490Z</time>
      </trkpt>
      <trkpt lat="45.86322" lon="-0.89753">
        <ele>20.42407</ele>
        <time>2025-05-06T12:00:05.271Z</time>
      </trkpt>
      <trkpt lat="45.86311" lon="-0.89705">
        <ele>19.60841</ele>
        <time>2025-05-06T12:00:37.666Z</time>
      </trkpt>
      <trkpt lat="45.86311" lon="-0.89688">
        <ele>19.14219</ele>
        <time>2025-05-06T12:00:48.054Z</time>
      </trkpt>
      <trkpt lat="45.86304" lon="-0.8966">
        <ele>18.28475</ele>
        <time>2025-05-06T12:01:06.126Z</time>
      </trkpt>
      <trkpt lat="45.86285" lon="-0.89617">
        <ele>17.31526</ele>
        <time>2025-05-06T12:01:38.371Z</time>
      </trkpt>
      <trkpt lat="45.86269" lon="-0.89611">
        <ele>17.03081</ele>
        <time>2025-05-06T12:01:53.870Z</time>
      </trkpt>
      <trkpt lat="45.86254" lon="-0.89613">
        <ele>16.92107</ele>
        <time>2025-05-06T12:02:08.420Z</time>
      </trkpt>
      <trkpt lat="45.8622" lon="-0.89605">
        <ele>16.29157</ele>
        <time>2025-05-06T12:02:40.609Z</time>
      </trkpt>
      <trkpt lat="45.86201" lon="-0.89596">
        <ele>15.71987</ele>
        <time>2025-05-06T12:02:58.733Z</time>
      </trkpt>
      <trkpt lat="45.86138" lon="-0.89611">
        <ele>15.20671</ele>
        <time>2025-05-06T12:04:00.273Z</time>
      </trkpt>
      <trkpt lat="45.86112" lon="-0.89637">
        <ele>15.10103</ele>
        <time>2025-05-06T12:04:31.248Z</time>
      </trkpt>
      <trkpt lat="45.86106" lon="-0.89656">
        <ele>15.59393</ele>
        <time>2025-05-06T12:04:47.212Z</time>
      </trkpt>
      <trkpt lat="45.86092" lon="-0.89665">
        <ele>15.74798</ele>
        <time>2025-05-06T12:05:02.841Z</time>
      </trkpt>
      <trkpt lat="45.86069" lon="-0.89705">
        <ele>17.97959</ele>
        <time>2025-05-06T12:05:46.319Z</time>
      </trkpt>
      <trkpt lat="45.86063" lon="-0.89708">
        <ele>18.16806</ele>
        <time>2025-05-06T12:05:53.206Z</time>
      </trkpt>
      <trkpt lat="45.86048" lon="-0.89736">
        <ele>18.9795</ele>
        <time>2025-05-06T12:06:20.158Z</time>
      </trkpt>
      <trkpt lat="45.86044" lon="-0.89783">
        <ele>19.71042</ele>
        <time>2025-05-06T12:06:55.060Z</time>
      </trkpt>
      <trkpt lat="45.86048" lon="-0.89826">
        <ele>20.08182</ele>
        <time>2025-05-06T12:07:26.059Z</time>
      </trkpt>
      <trkpt lat="45.86077" lon="-0.89899">
        <ele>20.40047</ele>
        <time>2025-05-06T12:08:24.846Z</time>
      </trkpt>
      <trkpt lat="45.86098" lon="-0.89936">
        <ele>20.61467</ele>
        <time>2025-05-06T12:08:58.338Z</time>
      </trkpt>
      <trkpt lat="45.8612" lon="-0.90015">
        <ele>21.11044</ele>
        <time>2025-05-06T12:09:58.394Z</time>
      </trkpt>
      <trkpt lat="45.8612" lon="-0.90034">
        <ele>20.92819</ele>
        <time>2025-05-06T12:10:10.925Z</time>
      </trkpt>
      <trkpt lat="45.86111" lon="-0.90055">
        <ele>20.48984</ele>
        <time>2025-05-06T12:10:26.623Z</time>
      </trkpt>
      <trkpt lat="45.86106" lon="-0.90083">
        <ele>19.93678</ele>
        <time>2025-05-06T12:10:44.918Z</time>
      </trkpt>
      <trkpt lat="45.86106" lon="-0.9015">
        <ele>18.97453</ele>
        <time>2025-05-06T12:11:28.203Z</time>
      </trkpt>
      <trkpt lat="45.86088" lon="-0.90214">
        <ele>17.17427</ele>
        <time>2025-05-06T12:12:10.620Z</time>
      </trkpt>
      <trkpt lat="45.86083" lon="-0.90295">
        <ele>11.80631</ele>
        <time>2025-05-06T12:12:59.560Z</time>
      </trkpt>
      <trkpt lat="45.86083" lon="-0.90322">
        <ele>11.1777</ele>
        <time>2025-05-06T12:13:16.351Z</time>
      </trkpt>
      <trkpt lat="45.86096" lon="-0.90406">
        <ele>11.83577</ele>
        <time>2025-05-06T12:14:17.587Z</time>
      </trkpt>
      <trkpt lat="45.8611" lon="-0.90465">
        <ele>12.79442</ele>
        <time>2025-05-06T12:15:03.519Z</time>
      </trkpt>
      <trkpt lat="45.86115" lon="-0.90538">
        <ele>10.5154</ele>
        <time>2025-05-06T12:15:47.665Z</time>
      </trkpt>
      <trkpt lat="45.86162" lon="-0.90523">
        <ele>11.9232</ele>
        <time>2025-05-06T12:16:39.784Z</time>
      </trkpt>
      <trkpt lat="45.86181" lon="-0.90509">
        <ele>11.91994</ele>
        <time>2025-05-06T12:17:00.867Z</time>
      </trkpt>
      <trkpt lat="45.86229" lon="-0.90484">
        <ele>11.7285</ele>
        <time>2025-05-06T12:17:50.720Z</time>
      </trkpt>
      <trkpt lat="45.8624" lon="-0.90469">
        <ele>12.18278</ele>
        <time>2025-05-06T12:18:07.179Z</time>
      </trkpt>
      <trkpt lat="45.8628" lon="-0.90448">
        <ele>12.71384</ele>
        <time>2025-05-06T12:18:50.903Z</time>
      </trkpt>
      <trkpt lat="45.86313" lon="-0.90442">
        <ele>13.21886</ele>
        <time>2025-05-06T12:19:25.343Z</time>
      </trkpt>
      <trkpt lat="45.8634" lon="-0.90422">
        <ele>15.09772</ele>
        <time>2025-05-06T12:20:01.917Z</time>
      </trkpt>
      <trkpt lat="45.86327" lon="-0.90448">
        <ele>13.27898</ele>
        <time>2025-05-06T12:20:21.180Z</time>
      </trkpt>
      <trkpt lat="45.86329" lon="-0.90458">
        <ele>12.9738</ele>
        <time>2025-05-06T12:20:27.487Z</time>
      </trkpt>
      <trkpt lat="45.86325" lon="-0.90486">
        <ele>11.26047</ele>
        <time>2025-05-06T12:20:44.689Z</time>
      </trkpt>
      <trkpt lat="45.86328" lon="-0.90493">
        <ele>10.70913</ele>
        <time>2025-05-06T12:20:49.635Z</time>
      </trkpt>
      <trkpt lat="45.86348" lon="-0.90511">
        <ele>8.02862</ele>
        <time>2025-05-06T12:21:10.034Z</time>
      </trkpt>
      <trkpt lat="45.86373" lon="-0.9051">
        <ele>7.89862</ele>
        <time>2025-05-06T12:21:34.345Z</time>
      </trkpt>
      <trkpt lat="45.86378" lon="-0.90513">
        <ele>7.44061</ele>
        <time>2025-05-06T12:21:39.028Z</time>
      </trkpt>
      <trkpt lat="45.86398" lon="-0.90508">
        <ele>6.6737</ele>
        <time>2025-05-06T12:21:56.925Z</time>
      </trkpt>
      <trkpt lat="45.8641" lon="-0.905">
        <ele>6.5767</ele>
        <time>2025-05-06T12:22:09.702Z</time>
      </trkpt>
      <trkpt lat="45.86435" lon="-0.90498">
        <ele>7.41036</ele>
        <time>2025-05-06T12:22:37.160Z</time>
      </trkpt>
      <trkpt lat="45.86457" lon="-0.9051">
        <ele>5.06338</ele>
        <time>2025-05-06T12:22:57.499Z</time>
      </trkpt>
      <trkpt lat="45.86477" lon="-0.90514">
        <ele>6.06274</ele>
        <time>2025-05-06T12:23:20.837Z</time>
      </trkpt>
      <trkpt lat="45.86486" lon="-0.90525">
        <ele>5.72106</ele>
        <time>2025-05-06T12:23:31.533Z</time>
      </trkpt>
      <trkpt lat="45.86506" lon="-0.90532">
        <ele>6.38926</ele>
        <time>2025-05-06T12:23:54.047Z</time>
      </trkpt>
      <trkpt lat="45.86519" lon="-0.9053">
        <ele>7.25917</ele>
        <time>2025-05-06T12:24:10.035Z</time>
      </trkpt>
      <trkpt lat="45.86541" lon="-0.90538">
        <ele>6.70233</ele>
        <time>2025-05-06T12:24:30.843Z</time>
      </trkpt>
      <trkpt lat="45.86552" lon="-0.90536">
        <ele>7.837</ele>
        <time>2025-05-06T12:24:46.168Z</time>
      </trkpt>
      <trkpt lat="45.86556" lon="-0.90528">
        <ele>9.1955</ele>
        <time>2025-05-06T12:24:59.684Z</time>
      </trkpt>
      <trkpt lat="45.86549" lon="-0.90521">
        <ele>9.44252</ele>
        <time>2025-05-06T12:25:08.909Z</time>
      </trkpt>
      <trkpt lat="45.86546" lon="-0.90531">
        <ele>8.0187</ele>
        <time>2025-05-06T12:25:15.462Z</time>
      </trkpt>
      <trkpt lat="45.86542" lon="-0.90532">
        <ele>7.67269</ele>
        <time>2025-05-06T12:25:18.971Z</time>
      </trkpt>
      <trkpt lat="45.8654" lon="-0.90528">
        <ele>8.22241</ele>
        <time>2025-05-06T12:25:24.818Z</time>
      </trkpt>
      <trkpt lat="45.86524" lon="-0.90539">
        <ele>5.58423</ele>
        <time>2025-05-06T12:25:40.149Z</time>
      </trkpt>
      <trkpt lat="45.86519" lon="-0.90539">
        <ele>5.41161</ele>
        <time>2025-05-06T12:25:44.599Z</time>
      </trkpt>
      <trkpt lat="45.86514" lon="-0.90527">
        <ele>7.66286</ele>
        <time>2025-05-06T12:26:06.486Z</time>
      </trkpt>
      <trkpt lat="45.86501" lon="-0.90532">
        <ele>6.13579</ele>
        <time>2025-05-06T12:26:18.117Z</time>
      </trkpt>
      <trkpt lat="45.8649" lon="-0.90588">
        <ele>3.68626</ele>
        <time>2025-05-06T12:26:53.133Z</time>
      </trkpt>
      <trkpt lat="45.86452" lon="-0.907">
        <ele>3.95321</ele>
        <time>2025-05-06T12:28:19.638Z</time>
      </trkpt>
      <trkpt lat="45.86429" lon="-0.90799">
        <ele>3.68588</ele>
        <time>2025-05-06T12:29:30.612Z</time>
      </trkpt>
      <trkpt lat="45.86403" lon="-0.90869">
        <ele>3.73929</ele>
        <time>2025-05-06T12:30:25.340Z</time>
      </trkpt>
      <trkpt lat="45.86398" lon="-0.90896">
        <ele>3.84618</ele>
        <time>2025-05-06T12:30:44.885Z</time>
      </trkpt>
      <trkpt lat="45.86421" lon="-0.90971">
        <ele>4.47347</ele>
        <time>2025-05-06T12:31:43.202Z</time>
      </trkpt>
      <trkpt lat="45.86441" lon="-0.91002">
        <ele>4.09114</ele>
        <time>2025-05-06T12:32:11.137Z</time>
      </trkpt>
      <trkpt lat="45.86455" lon="-0.91033">
        <ele>3.64497</ele>
        <time>2025-05-06T12:32:35.243Z</time>
      </trkpt>
      <trkpt lat="45.86478" lon="-0.91055">
        <ele>4.1428</ele>
        <time>2025-05-06T12:33:04.112Z</time>
      </trkpt>
      <trkpt lat="45.86511" lon="-0.91075">
        <ele>3.78164</ele>
        <time>2025-05-06T12:33:38.415Z</time>
      </trkpt>
      <trkpt lat="45.86547" lon="-0.91113">
        <ele>3.53627</ele>
        <time>2025-05-06T12:34:21.806Z</time>
      </trkpt>
      <trkpt lat="45.86571" lon="-0.91129">
        <ele>4.6081</ele>
        <time>2025-05-06T12:34:51.506Z</time>
      </trkpt>
      <trkpt lat="45.8663" lon="-0.91153">
        <ele>6.75462</ele>
        <time>2025-05-06T12:35:59.123Z</time>
      </trkpt>
      <trkpt lat="45.86649" lon="-0.91152">
        <ele>7.97363</ele>
        <time>2025-05-06T12:36:22.186Z</time>
      </trkpt>
      <trkpt lat="45.86692" lon="-0.91125">
        <ele>8.67901</ele>
        <time>2025-05-06T12:37:10.754Z</time>
      </trkpt>
      <trkpt lat="45.86702" lon="-0.91107">
        <ele>9.15333</ele>
        <time>2025-05-06T12:37:28.130Z</time>
      </trkpt>
      <trkpt lat="45.8671" lon="-0.91103">
        <ele>9.24983</ele>
        <time>2025-05-06T12:37:36.798Z</time>
      </trkpt>
      <trkpt lat="45.86743" lon="-0.91067">
        <ele>9.55669</ele>
        <time>2025-05-06T12:38:18.677Z</time>
      </trkpt>
      <trkpt lat="45.86776" lon="-0.91053">
        <ele>9.73189</ele>
        <time>2025-05-06T12:38:53.201Z</time>
      </trkpt>
      <trkpt lat="45.86845" lon="-0.91048">
        <ele>8.59066</ele>
        <time>2025-05-06T12:39:58.089Z</time>
      </trkpt>
      <trkpt lat="45.86932" lon="-0.91059">
        <ele>9.10119</ele>
        <time>2025-05-06T12:41:25.922Z</time>
      </trkpt>
      <trkpt lat="45.86952" lon="-0.91055">
        <ele>9.62145</ele>
        <time>2025-05-06T12:41:47.540Z</time>
      </trkpt>
      <trkpt lat="45.86984" lon="-0.91057">
        <ele>10.19763</ele>
        <time>2025-05-06T12:42:20.998Z</time>
      </trkpt>
      <trkpt lat="45.87003" lon="-0.9105">
        <ele>10.42831</ele>
        <time>2025-05-06T12:42:41.091Z</time>
      </trkpt>
      <trkpt lat="45.8703" lon="-0.91054">
        <ele>10.54423</ele>
        <time>2025-05-06T12:43:08.256Z</time>
      </trkpt>
      <trkpt lat="45.87074" lon="-0.91052">
        <ele>10.39869</ele>
        <time>2025-05-06T12:43:51.296Z</time>
      </trkpt>
      <trkpt lat="45.87105" lon="-0.91057">
        <ele>9.97233</ele>
        <time>2025-05-06T12:44:20.848Z</time>
      </trkpt>
      <trkpt lat="45.87153" lon="-0.91057">
        <ele>9.63844</ele>
        <time>2025-05-06T12:45:07.257Z</time>
      </trkpt>
      <trkpt lat="45.87195" lon="-0.91073">
        <ele>10.07401</ele>
        <time>2025-05-06T12:45:51.527Z</time>
      </trkpt>
      <trkpt lat="45.8723" lon="-0.91093">
        <ele>10.43665</ele>
        <time>2025-05-06T12:46:29.858Z</time>
      </trkpt>
      <trkpt lat="45.87254" lon="-0.91118">
        <ele>10.10838</ele>
        <time>2025-05-06T12:46:58.166Z</time>
      </trkpt>
      <trkpt lat="45.87309" lon="-0.91151">
        <ele>10.69325</ele>
        <time>2025-05-06T12:47:58.854Z</time>
      </trkpt>
      <trkpt lat="45.87322" lon="-0.91165">
        <ele>10.80616</ele>
        <time>2025-05-06T12:48:15.251Z</time>
      </trkpt>
      <trkpt lat="45.87402" lon="-0.91222">
        <ele>11.18798</ele>
        <time>2025-05-06T12:49:44.626Z</time>
      </trkpt>
      <trkpt lat="45.87487" lon="-0.91301">
        <ele>11.24781</ele>
        <time>2025-05-06T12:51:24.805Z</time>
      </trkpt>
      <trkpt lat="45.87532" lon="-0.9132">
        <ele>10.38911</ele>
        <time>2025-05-06T12:52:08.620Z</time>
      </trkpt>
      <trkpt lat="45.87589" lon="-0.91332">
        <ele>10.56091</ele>
        <time>2025-05-06T12:53:06.045Z</time>
      </trkpt>
      <trkpt lat="45.87633" lon="-0.91311">
        <ele>10.57192</ele>
        <time>2025-05-06T12:53:51.873Z</time>
      </trkpt>
      <trkpt lat="45.87681" lon="-0.91278">
        <ele>9.78123</ele>
        <time>2025-05-06T12:54:42.104Z</time>
      </trkpt>
      <trkpt lat="45.87732" lon="-0.91299">
        <ele>5.7584</ele>
        <time>2025-05-06T12:55:27.955Z</time>
      </trkpt>
      <trkpt lat="45.87749" lon="-0.91298">
        <ele>4.4575</ele>
        <time>2025-05-06T12:55:42.659Z</time>
      </trkpt>
      <trkpt lat="45.87765" lon="-0.91304">
        <ele>4.28952</ele>
        <time>2025-05-06T12:55:58.492Z</time>
      </trkpt>
      <trkpt lat="45.87821" lon="-0.91284">
        <ele>7.49664</ele>
        <time>2025-05-06T12:57:06.533Z</time>
      </trkpt>
      <trkpt lat="45.87837" lon="-0.91282">
        <ele>8.00088</ele>
        <time>2025-05-06T12:57:24.038Z</time>
      </trkpt>
      <trkpt lat="45.87878" lon="-0.91292">
        <ele>8.76563</ele>
        <time>2025-05-06T12:58:07.534Z</time>
      </trkpt>
      <trkpt lat="45.87887" lon="-0.913">
        <ele>8.80956</ele>
        <time>2025-05-06T12:58:18.122Z</time>
      </trkpt>
      <trkpt lat="45.87898" lon="-0.91323">
        <ele>8.76593</ele>
        <time>2025-05-06T12:58:37.177Z</time>
      </trkpt>
      <trkpt lat="45.87902" lon="-0.9135">
        <ele>8.50673</ele>
        <time>2025-05-06T12:58:55.392Z</time>
      </trkpt>
      <trkpt lat="45.87912" lon="-0.9137">
        <ele>7.82652</ele>
        <time>2025-05-06T12:59:10.421Z</time>
      </trkpt>
      <trkpt lat="45.87926" lon="-0.91384">
        <ele>7.3358</ele>
        <time>2025-05-06T12:59:25.866Z</time>
      </trkpt>
      <trkpt lat="45.87967" lon="-0.91393">
        <ele>8.72483</ele>
        <time>2025-05-06T13:00:11.379Z</time>
      </trkpt>
      <trkpt lat="45.88003" lon="-0.91394">
        <ele>10.11579</ele>
        <time>2025-05-06T13:00:51.549Z</time>
      </trkpt>
      <trkpt lat="45.88047" lon="-0.91404">
        <ele>10.4539</ele>
        <time>2025-05-06T13:01:36.593Z</time>
      </trkpt>
      <trkpt lat="45.88094" lon="-0.91403">
        <ele>10.1444</ele>
        <time>2025-05-06T13:02:22.092Z</time>
      </trkpt>
      <trkpt lat="45.88086" lon="-0.91409">
        <ele>10.05779</ele>
        <time>2025-05-06T13:02:30.747Z</time>
      </trkpt>
      <trkpt lat="45.88077" lon="-0.91405">
        <ele>10.24811</ele>
        <time>2025-05-06T13:02:40.657Z</time>
      </trkpt>
      <trkpt lat="45.88074" lon="-0.91398">
        <ele>10.48571</ele>
        <time>2025-05-06T13:02:47.101Z</time>
      </trkpt>
      <trkpt lat="45.88085" lon="-0.91273">
        <ele>10.93587</ele>
        <time>2025-05-06T13:04:15.117Z</time>
      </trkpt>
      <trkpt lat="45.88093" lon="-0.91243">
        <ele>11.07741</ele>
        <time>2025-05-06T13:04:37.642Z</time>
      </trkpt>
      <trkpt lat="45.88111" lon="-0.91241">
        <ele>11.34618</ele>
        <time>2025-05-06T13:04:56.317Z</time>
      </trkpt>
      <trkpt lat="45.88143" lon="-0.91248">
        <ele>11.46938</ele>
        <time>2025-05-06T13:05:28.665Z</time>
      </trkpt>
      <trkpt lat="45.88203" lon="-0.91274">
        <ele>12.1071</ele>
        <time>2025-05-06T13:06:32.546Z</time>
      </trkpt>
      <trkpt lat="45.88223" lon="-0.91278">
        <ele>12.3156</ele>
        <time>2025-05-06T13:06:53.139Z</time>
      </trkpt>
      <trkpt lat="45.88237" lon="-0.9129">
        <ele>12.44922</ele>
        <time>2025-05-06T13:07:09.654Z</time>
      </trkpt>
      <trkpt lat="45.88248" lon="-0.91307">
        <ele>12.2117</ele>
        <time>2025-05-06T13:07:24.913Z</time>
      </trkpt>
      <trkpt lat="45.88251" lon="-0.91319">
        <ele>12.05086</ele>
        <time>2025-05-06T13:07:33.209Z</time>
      </trkpt>
      <trkpt lat="45.88255" lon="-0.91398">
        <ele>11.36778</ele>
        <time>2025-05-06T13:08:25.647Z</time>
      </trkpt>
      <trkpt lat="45.88264" lon="-0.91418">
        <ele>10.93814</ele>
        <time>2025-05-06T13:08:40.785Z</time>
      </trkpt>
      <trkpt lat="45.88274" lon="-0.91424">
        <ele>10.98518</ele>
        <time>2025-05-06T13:08:51.633Z</time>
      </trkpt>
      <trkpt lat="45.88443" lon="-0.91421">
        <ele>6.96916</ele>
        <time>2025-05-06T13:11:26.955Z</time>
      </trkpt>
      <trkpt lat="45.88526" lon="-0.91415">
        <ele>5.86275</ele>
        <time>2025-05-06T13:12:45.767Z</time>
      </trkpt>
      <trkpt lat="45.88584" lon="-0.91423">
        <ele>4.29387</ele>
        <time>2025-05-06T13:13:38.811Z</time>
      </trkpt>
      <trkpt lat="45.88598" lon="-0.91418">
        <ele>4.06991</ele>
        <time>2025-05-06T13:13:52.401Z</time>
      </trkpt>
      <trkpt lat="45.8865" lon="-0.9142">
        <ele>3.77405</ele>
        <time>2025-05-06T13:14:42.890Z</time>
      </trkpt>
      <trkpt lat="45.88671" lon="-0.91416">
        <ele>4.585</ele>
        <time>2025-05-06T13:15:06.497Z</time>
      </trkpt>
      <trkpt lat="45.88715" lon="-0.91422">
        <ele>6.64884</ele>
        <time>2025-05-06T13:15:57.115Z</time>
      </trkpt>
      <trkpt lat="45.88721" lon="-0.91424">
        <ele>6.86871</ele>
        <time>2025-05-06T13:16:03.922Z</time>
      </trkpt>
      <trkpt lat="45.88747" lon="-0.91451">
        <ele>7.0796</ele>
        <time>2025-05-06T13:16:36.258Z</time>
      </trkpt>
      <trkpt lat="45.88767" lon="-0.91456">
        <ele>8.02069</ele>
        <time>2025-05-06T13:16:59.482Z</time>
      </trkpt>
      <trkpt lat="45.88823" lon="-0.91492">
        <ele>8.42657</ele>
        <time>2025-05-06T13:18:01.329Z</time>
      </trkpt>
      <trkpt lat="45.88838" lon="-0.91507">
        <ele>8.50678</ele>
        <time>2025-05-06T13:18:19.626Z</time>
      </trkpt>
      <trkpt lat="45.88905" lon="-0.91547">
        <ele>7.45032</ele>
        <time>2025-05-06T13:19:28.173Z</time>
      </trkpt>
      <trkpt lat="45.88926" lon="-0.91548">
        <ele>6.35437</ele>
        <time>2025-05-06T13:19:46.332Z</time>
      </trkpt>
      <trkpt lat="45.88967" lon="-0.91531">
        <ele>7.13286</ele>
        <time>2025-05-06T13:20:30.943Z</time>
      </trkpt>
      <trkpt lat="45.88984" lon="-0.91529">
        <ele>7.89754</ele>
        <time>2025-05-06T13:20:50.359Z</time>
      </trkpt>
      <trkpt lat="45.89011" lon="-0.91537">
        <ele>8.52144</ele>
        <time>2025-05-06T13:21:19.581Z</time>
      </trkpt>
      <trkpt lat="45.89024" lon="-0.91534">
        <ele>8.91022</ele>
        <time>2025-05-06T13:21:33.847Z</time>
      </trkpt>
      <trkpt lat="45.89057" lon="-0.9154">
        <ele>9.37613</ele>
        <time>2025-05-06T13:22:08.161Z</time>
      </trkpt>
      <trkpt lat="45.89065" lon="-0.91563">
        <ele>7.9736</ele>
        <time>2025-05-06T13:22:23.627Z</time>
      </trkpt>
      <trkpt lat="45.89037" lon="-0.91623">
        <ele>6.30246</ele>
        <time>2025-05-06T13:23:08.551Z</time>
      </trkpt>
      <trkpt lat="45.89038" lon="-0.91631">
        <ele>6.08917</ele>
        <time>2025-05-06T13:23:13.540Z</time>
      </trkpt>
      <trkpt lat="45.89045" lon="-0.91634">
        <ele>5.6331</ele>
        <time>2025-05-06T13:23:19.853Z</time>
      </trkpt>
      <trkpt lat="45.8906" lon="-0.91633">
        <ele>4.74849</ele>
        <time>2025-05-06T13:23:32.830Z</time>
      </trkpt>
      <trkpt lat="45.89083" lon="-0.91619">
        <ele>3.97681</ele>
        <time>2025-05-06T13:23:55.304Z</time>
      </trkpt>
      <trkpt lat="45.89122" lon="-0.91604">
        <ele>4.10925</ele>
        <time>2025-05-06T13:24:35.586Z</time>
      </trkpt>
      <trkpt lat="45.89137" lon="-0.91593">
        <ele>4.31697</ele>
        <time>2025-05-06T13:24:52.868Z</time>
      </trkpt>
      <trkpt lat="45.89137" lon="-0.91582">
        <ele>4.85023</ele>
        <time>2025-05-06T13:25:02.328Z</time>
      </trkpt>
      <trkpt lat="45.89127" lon="-0.91572">
        <ele>4.72935</ele>
        <time>2025-05-06T13:25:14.002Z</time>
      </trkpt>
      <trkpt lat="45.89128" lon="-0.91567">
        <ele>4.9179</ele>
        <time>2025-05-06T13:25:18.223Z</time>
      </trkpt>
      <trkpt lat="45.89114" lon="-0.91558">
        <ele>4.45221</ele>
        <time>2025-05-06T13:25:32.044Z</time>
      </trkpt>
      <trkpt lat="45.89107" lon="-0.91558">
        <ele>4.17734</ele>
        <time>2025-05-06T13:25:38.188Z</time>
      </trkpt>
      <trkpt lat="45.89124" lon="-0.91566">
        <ele>4.8097</ele>
        <time>2025-05-06T13:25:57.936Z</time>
      </trkpt>
      <trkpt lat="45.8915" lon="-0.91595">
        <ele>4.68973</ele>
        <time>2025-05-06T13:26:30.084Z</time>
      </trkpt>
      <trkpt lat="45.8919" lon="-0.91581">
        <ele>6.29663</ele>
        <time>2025-05-06T13:27:16.074Z</time>
      </trkpt>
      <trkpt lat="45.89204" lon="-0.9159">
        <ele>8.09749</ele>
        <time>2025-05-06T13:27:38.432Z</time>
      </trkpt>
      <trkpt lat="45.89219" lon="-0.9159">
        <ele>7.19832</ele>
        <time>2025-05-06T13:27:51.396Z</time>
      </trkpt>
      <trkpt lat="45.89231" lon="-0.91572">
        <ele>3.33593</ele>
        <time>2025-05-06T13:28:06.388Z</time>
      </trkpt>
      <trkpt lat="45.89239" lon="-0.91509">
        <ele>2.90994</ele>
        <time>2025-05-06T13:28:49.143Z</time>
      </trkpt>
      <trkpt lat="45.89258" lon="-0.91476">
        <ele>2.60127</ele>
        <time>2025-05-06T13:29:17.666Z</time>
      </trkpt>
      <trkpt lat="45.89271" lon="-0.91463">
        <ele>2.86159</ele>
        <time>2025-05-06T13:29:34.130Z</time>
      </trkpt>
      <trkpt lat="45.89329" lon="-0.91448">
        <ele>2.64358</ele>
        <time>2025-05-06T13:30:31.679Z</time>
      </trkpt>
      <trkpt lat="45.89352" lon="-0.91472">
        <ele>5.67982</ele>
        <time>2025-05-06T13:31:11.590Z</time>
      </trkpt>
      <trkpt lat="45.89365" lon="-0.91496">
        <ele>6.88047</ele>
        <time>2025-05-06T13:31:36.642Z</time>
      </trkpt>
      <trkpt lat="45.89399" lon="-0.91572">
        <ele>5.25973</ele>
        <time>2025-05-06T13:32:34.083Z</time>
      </trkpt>
      <trkpt lat="45.89402" lon="-0.91588">
        <ele>4.76321</ele>
        <time>2025-05-06T13:32:44.094Z</time>
      </trkpt>
      <trkpt lat="45.89408" lon="-0.91594">
        <ele>6.57715</ele>
        <time>2025-05-06T13:33:01.695Z</time>
      </trkpt>
      <trkpt lat="45.8941" lon="-0.9161">
        <ele>6.8694</ele>
        <time>2025-05-06T13:33:13.810Z</time>
      </trkpt>
      <trkpt lat="45.89405" lon="-0.91627">
        <ele>5.47933</ele>
        <time>2025-05-06T13:33:24.911Z</time>
      </trkpt>
      <trkpt lat="45.89363" lon="-0.91686">
        <ele>6.16322</ele>
        <time>2025-05-06T13:34:25.058Z</time>
      </trkpt>
      <trkpt lat="45.89363" lon="-0.91701">
        <ele>5.12492</ele>
        <time>2025-05-06T13:34:34.081Z</time>
      </trkpt>
      <trkpt lat="45.89392" lon="-0.91753">
        <ele>3.19206</ele>
        <time>2025-05-06T13:35:14.502Z</time>
      </trkpt>
      <trkpt lat="45.89405" lon="-0.91758">
        <ele>2.73488</ele>
        <time>2025-05-06T13:35:26.500Z</time>
      </trkpt>
      <trkpt lat="45.89428" lon="-0.91744">
        <ele>2.82843</ele>
        <time>2025-05-06T13:35:51.458Z</time>
      </trkpt>
      <trkpt lat="45.89435" lon="-0.91745">
        <ele>2.878</ele>
        <time>2025-05-06T13:35:58.559Z</time>
      </trkpt>
      <trkpt lat="45.89445" lon="-0.91752">
        <ele>5.96807</ele>
        <time>2025-05-06T13:36:28.823Z</time>
      </trkpt>
      <trkpt lat="45.8945" lon="-0.91779">
        <ele>4.52993</ele>
        <time>2025-05-06T13:36:45.628Z</time>
      </trkpt>
      <trkpt lat="45.89449" lon="-0.91792">
        <ele>3.07526</ele>
        <time>2025-05-06T13:36:53.495Z</time>
      </trkpt>
      <trkpt lat="45.89425" lon="-0.91827">
        <ele>2.99255</ele>
        <time>2025-05-06T13:37:27.020Z</time>
      </trkpt>
      <trkpt lat="45.89409" lon="-0.91867">
        <ele>3.55335</ele>
        <time>2025-05-06T13:38:00.505Z</time>
      </trkpt>
      <trkpt lat="45.89349" lon="-0.91922">
        <ele>3.31676</ele>
        <time>2025-05-06T13:39:10.086Z</time>
      </trkpt>
      <trkpt lat="45.89363" lon="-0.91949">
        <ele>3.16781</ele>
        <time>2025-05-06T13:39:32.784Z</time>
      </trkpt>
      <trkpt lat="45.89378" lon="-0.91964">
        <ele>2.84522</ele>
        <time>2025-05-06T13:39:49.890Z</time>
      </trkpt>
      <trkpt lat="45.89395" lon="-0.92037">
        <ele>2.82935</ele>
        <time>2025-05-06T13:40:42.758Z</time>
      </trkpt>
      <trkpt lat="45.89406" lon="-0.92047">
        <ele>2.83536</ele>
        <time>2025-05-06T13:40:55.632Z</time>
      </trkpt>
      <trkpt lat="45.8942" lon="-0.92133">
        <ele>3.01592</ele>
        <time>2025-05-06T13:41:56.898Z</time>
      </trkpt>
      <trkpt lat="45.89415" lon="-0.92106">
        <ele>3.2004</ele>
        <time>2025-05-06T13:42:16.677Z</time>
      </trkpt>
      <trkpt lat="45.89416" lon="-0.92079">
        <ele>3.07617</ele>
        <time>2025-05-06T13:42:34.891Z</time>
      </trkpt>
      <trkpt lat="45.89406" lon="-0.92045">
        <ele>2.82922</ele>
        <time>2025-05-06T13:42:59.529Z</time>
      </trkpt>
      <trkpt lat="45.89389" lon="-0.92014">
        <ele>3.3756</ele>
        <time>2025-05-06T13:43:28.394Z</time>
      </trkpt>
      <trkpt lat="45.89375" lon="-0.91951">
        <ele>2.92887</ele>
        <time>2025-05-06T13:44:12.525Z</time>
      </trkpt>
      <trkpt lat="45.8935" lon="-0.91931">
        <ele>3.39628</ele>
        <time>2025-05-06T13:44:42.259Z</time>
      </trkpt>
      <trkpt lat="45.89351" lon="-0.91919">
        <ele>3.36107</ele>
        <time>2025-05-06T13:44:50.461Z</time>
      </trkpt>
      <trkpt lat="45.89309" lon="-0.91945">
        <ele>3.40532</ele>
        <time>2025-05-06T13:45:35.765Z</time>
      </trkpt>
      <trkpt lat="45.89302" lon="-0.91945">
        <ele>3.08332</ele>
        <time>2025-05-06T13:45:41.815Z</time>
      </trkpt>
      <trkpt lat="45.89275" lon="-0.91906">
        <ele>2.89809</ele>
        <time>2025-05-06T13:46:19.072Z</time>
      </trkpt>
      <trkpt lat="45.89274" lon="-0.91894">
        <ele>3.1919</ele>
        <time>2025-05-06T13:46:28.345Z</time>
      </trkpt>
      <trkpt lat="45.89283" lon="-0.91869">
        <ele>3.26341</ele>
        <time>2025-05-06T13:46:47.913Z</time>
      </trkpt>
      <trkpt lat="45.89284" lon="-0.91854">
        <ele>3.23769</ele>
        <time>2025-05-06T13:46:58.193Z</time>
      </trkpt>
      <trkpt lat="45.8926" lon="-0.91762">
        <ele>5.51882</ele>
        <time>2025-05-06T13:48:13.200Z</time>
      </trkpt>
      <trkpt lat="45.89276" lon="-0.91727">
        <ele>3.3276</ele>
        <time>2025-05-06T13:48:38.387Z</time>
      </trkpt>
      <trkpt lat="45.89278" lon="-0.91714">
        <ele>3.14653</ele>
        <time>2025-05-06T13:48:47.012Z</time>
      </trkpt>
      <trkpt lat="45.8927" lon="-0.91674">
        <ele>4.15282</ele>
        <time>2025-05-06T13:49:18.925Z</time>
      </trkpt>
      <trkpt lat="45.89258" lon="-0.91657">
        <ele>4.35173</ele>
        <time>2025-05-06T13:49:36.191Z</time>
      </trkpt>
      <trkpt lat="45.89252" lon="-0.91631">
        <ele>3.99115</ele>
        <time>2025-05-06T13:49:53.968Z</time>
      </trkpt>
      <trkpt lat="45.89215" lon="-0.91568">
        <ele>4.65562</ele>
        <time>2025-05-06T13:50:52.706Z</time>
      </trkpt>
      <trkpt lat="45.89188" lon="-0.91549">
        <ele>6.90378</ele>
        <time>2025-05-06T13:51:30.503Z</time>
      </trkpt>
      <trkpt lat="45.89174" lon="-0.91561">
        <ele>7.34071</ele>
        <time>2025-05-06T13:51:48.014Z</time>
      </trkpt>
      <trkpt lat="45.89153" lon="-0.91593">
        <ele>4.84608</ele>
        <time>2025-05-06T13:52:14.469Z</time>
      </trkpt>
      <trkpt lat="45.89062" lon="-0.91633">
        <ele>4.66534</ele>
        <time>2025-05-06T13:53:47.913Z</time>
      </trkpt>
      <trkpt lat="45.89052" lon="-0.91634">
        <ele>5.14561</ele>
        <time>2025-05-06T13:53:59.439Z</time>
      </trkpt>
      <trkpt lat="45.89044" lon="-0.91627">
        <ele>5.75252</ele>
        <time>2025-05-06T13:54:10.827Z</time>
      </trkpt>
      <trkpt lat="45.89044" lon="-0.91622">
        <ele>5.7894</ele>
        <time>2025-05-06T13:54:14.379Z</time>
      </trkpt>
      <trkpt lat="45.89062" lon="-0.91563">
        <ele>8.44227</ele>
        <time>2025-05-06T13:55:07.879Z</time>
      </trkpt>
      <trkpt lat="45.89052" lon="-0.91539">
        <ele>9.32472</ele>
        <time>2025-05-06T13:55:30.076Z</time>
      </trkpt>
      <trkpt lat="45.89035" lon="-0.91538">
        <ele>9.05864</ele>
        <time>2025-05-06T13:55:46.099Z</time>
      </trkpt>
      <trkpt lat="45.89025" lon="-0.91543">
        <ele>8.75139</ele>
        <time>2025-05-06T13:55:55.678Z</time>
      </trkpt>
      <trkpt lat="45.88993" lon="-0.91547">
        <ele>7.52632</ele>
        <time>2025-05-06T13:56:23.966Z</time>
      </trkpt>
      <trkpt lat="45.88981" lon="-0.91538">
        <ele>7.42785</ele>
        <time>2025-05-06T13:56:37.041Z</time>
      </trkpt>
      <trkpt lat="45.88942" lon="-0.91542">
        <ele>6.00016</ele>
        <time>2025-05-06T13:57:11.639Z</time>
      </trkpt>
      <trkpt lat="45.8892" lon="-0.91557">
        <ele>6.82326</ele>
        <time>2025-05-06T13:57:38.388Z</time>
      </trkpt>
      <trkpt lat="45.88903" lon="-0.91554">
        <ele>7.57442</ele>
        <time>2025-05-06T13:57:57.823Z</time>
      </trkpt>
      <trkpt lat="45.88862" lon="-0.9153">
        <ele>8.07195</ele>
        <time>2025-05-06T13:58:43.100Z</time>
      </trkpt>
      <trkpt lat="45.88832" lon="-0.91519">
        <ele>8.46976</ele>
        <time>2025-05-06T13:59:14.925Z</time>
      </trkpt>
      <trkpt lat="45.88822" lon="-0.91506">
        <ele>8.52369</ele>
        <time>2025-05-06T13:59:28.410Z</time>
      </trkpt>
      <trkpt lat="45.88779" lon="-0.91479">
        <ele>7.97243</ele>
        <time>2025-05-06T14:00:13.125Z</time>
      </trkpt>
      <trkpt lat="45.88771" lon="-0.91465">
        <ele>8.10637</ele>
        <time>2025-05-06T14:00:25.995Z</time>
      </trkpt>
      <trkpt lat="45.88738" lon="-0.91434">
        <ele>7.16877</ele>
        <time>2025-05-06T14:01:02.228Z</time>
      </trkpt>
      <trkpt lat="45.88715" lon="-0.91429">
        <ele>6.56726</ele>
        <time>2025-05-06T14:01:23.472Z</time>
      </trkpt>
      <trkpt lat="45.88709" lon="-0.91424">
        <ele>6.35282</ele>
        <time>2025-05-06T14:01:29.712Z</time>
      </trkpt>
      <trkpt lat="45.88697" lon="-0.91406">
        <ele>6.095</ele>
        <time>2025-05-06T14:01:46.088Z</time>
      </trkpt>
      <trkpt lat="45.88691" lon="-0.91379">
        <ele>5.84727</ele>
        <time>2025-05-06T14:02:04.841Z</time>
      </trkpt>
      <trkpt lat="45.8869" lon="-0.91339">
        <ele>5.91966</ele>
        <time>2025-05-06T14:02:32.580Z</time>
      </trkpt>
      <trkpt lat="45.88678" lon="-0.91285">
        <ele>6.34574</ele>
        <time>2025-05-06T14:03:12.877Z</time>
      </trkpt>
      <trkpt lat="45.88678" lon="-0.91228">
        <ele>6.56108</ele>
        <time>2025-05-06T14:03:52.728Z</time>
      </trkpt>
      <trkpt lat="45.88654" lon="-0.91182">
        <ele>6.38661</ele>
        <time>2025-05-06T14:04:31.725Z</time>
      </trkpt>
      <trkpt lat="45.88646" lon="-0.91146">
        <ele>5.97519</ele>
        <time>2025-05-06T14:04:56.496Z</time>
      </trkpt>
      <trkpt lat="45.88619" lon="-0.91095">
        <ele>6.37672</ele>
        <time>2025-05-06T14:05:41.793Z</time>
      </trkpt>
      <trkpt lat="45.88607" lon="-0.91084">
        <ele>6.26231</ele>
        <time>2025-05-06T14:05:55.511Z</time>
      </trkpt>
      <trkpt lat="45.88596" lon="-0.91061">
        <ele>6.14895</ele>
        <time>2025-05-06T14:06:14.356Z</time>
      </trkpt>
      <trkpt lat="45.8859" lon="-0.91043">
        <ele>6.4475</ele>
        <time>2025-05-06T14:06:29.028Z</time>
      </trkpt>
      <trkpt lat="45.88591" lon="-0.91024">
        <ele>6.58561</ele>
        <time>2025-05-06T14:06:42.558Z</time>
      </trkpt>
      <trkpt lat="45.88583" lon="-0.91">
        <ele>6.40229</ele>
        <time>2025-05-06T14:07:00.307Z</time>
      </trkpt>
      <trkpt lat="45.88578" lon="-0.90996">
        <ele>6.03715</ele>
        <time>2025-05-06T14:07:05.253Z</time>
      </trkpt>
      <trkpt lat="45.8855" lon="-0.90992">
        <ele>4.15029</ele>
        <time>2025-05-06T14:07:29.571Z</time>
      </trkpt>
      <trkpt lat="45.88518" lon="-0.90996">
        <ele>5.47033</ele>
        <time>2025-05-06T14:08:05.693Z</time>
      </trkpt>
      <trkpt lat="45.88487" lon="-0.90994">
        <ele>6.56097</ele>
        <time>2025-05-06T14:08:39.926Z</time>
      </trkpt>
      <trkpt lat="45.8848" lon="-0.90984">
        <ele>6.80981</ele>
        <time>2025-05-06T14:08:50.476Z</time>
      </trkpt>
      <trkpt lat="45.88468" lon="-0.9098">
        <ele>6.94433</ele>
        <time>2025-05-06T14:09:03.062Z</time>
      </trkpt>
      <trkpt lat="45.88461" lon="-0.90969">
        <ele>6.94574</ele>
        <time>2025-05-06T14:09:13.313Z</time>
      </trkpt>
      <trkpt lat="45.88455" lon="-0.90945">
        <ele>6.74732</ele>
        <time>2025-05-06T14:09:30.257Z</time>
      </trkpt>
      <trkpt lat="45.88441" lon="-0.90936">
        <ele>6.85155</ele>
        <time>2025-05-06T14:09:45.727Z</time>
      </trkpt>
      <trkpt lat="45.88434" lon="-0.90922">
        <ele>6.98744</ele>
        <time>2025-05-06T14:09:58.002Z</time>
      </trkpt>
      <trkpt lat="45.88414" lon="-0.90914">
        <ele>6.85648</ele>
        <time>2025-05-06T14:10:18.114Z</time>
      </trkpt>
      <trkpt lat="45.88397" lon="-0.909">
        <ele>6.89452</ele>
        <time>2025-05-06T14:10:37.585Z</time>
      </trkpt>
      <trkpt lat="45.88388" lon="-0.90876">
        <ele>7.14473</ele>
        <time>2025-05-06T14:10:57.110Z</time>
      </trkpt>
      <trkpt lat="45.88375" lon="-0.90861">
        <ele>6.98701</ele>
        <time>2025-05-06T14:11:13.109Z</time>
      </trkpt>
      <trkpt lat="45.8837" lon="-0.90833">
        <ele>6.68574</ele>
        <time>2025-05-06T14:11:32.097Z</time>
      </trkpt>
      <trkpt lat="45.88363" lon="-0.90825">
        <ele>6.77843</ele>
        <time>2025-05-06T14:11:41.220Z</time>
      </trkpt>
      <trkpt lat="45.8836" lon="-0.90812">
        <ele>6.98341</ele>
        <time>2025-05-06T14:11:51.290Z</time>
      </trkpt>
      <trkpt lat="45.88357" lon="-0.90779">
        <ele>6.93364</ele>
        <time>2025-05-06T14:12:14.021Z</time>
      </trkpt>
      <trkpt lat="45.88375" lon="-0.90723">
        <ele>6.90822</ele>
        <time>2025-05-06T14:12:56.352Z</time>
      </trkpt>
      <trkpt lat="45.88369" lon="-0.90707">
        <ele>6.98831</ele>
        <time>2025-05-06T14:13:09.095Z</time>
      </trkpt>
      <trkpt lat="45.88364" lon="-0.90658">
        <ele>7.48067</ele>
        <time>2025-05-06T14:13:44.689Z</time>
      </trkpt>
      <trkpt lat="45.88357" lon="-0.90642">
        <ele>7.48282</ele>
        <time>2025-05-06T14:13:57.688Z</time>
      </trkpt>
      <trkpt lat="45.8835" lon="-0.90585">
        <ele>7.14701</ele>
        <time>2025-05-06T14:14:36.480Z</time>
      </trkpt>
      <trkpt lat="45.8833" lon="-0.9055">
        <ele>7.05305</ele>
        <time>2025-05-06T14:15:07.330Z</time>
      </trkpt>
      <trkpt lat="45.88322" lon="-0.9052">
        <ele>7.08936</ele>
        <time>2025-05-06T14:15:29.529Z</time>
      </trkpt>
      <trkpt lat="45.8832" lon="-0.90488">
        <ele>7.65999</ele>
        <time>2025-05-06T14:15:53.454Z</time>
      </trkpt>
      <trkpt lat="45.88329" lon="-0.90447">
        <ele>7.46808</ele>
        <time>2025-05-06T14:16:22.436Z</time>
      </trkpt>
      <trkpt lat="45.88339" lon="-0.90425">
        <ele>7.95884</ele>
        <time>2025-05-06T14:16:42.084Z</time>
      </trkpt>
      <trkpt lat="45.88341" lon="-0.90355">
        <ele>8.85206</ele>
        <time>2025-05-06T14:17:33.080Z</time>
      </trkpt>
      <trkpt lat="45.8835" lon="-0.90269">
        <ele>9.24153</ele>
        <time>2025-05-06T14:18:34.074Z</time>
      </trkpt>
      <trkpt lat="45.88349" lon="-0.90209">
        <ele>9.02631</ele>
        <time>2025-05-06T14:19:14.692Z</time>
      </trkpt>
      <trkpt lat="45.88355" lon="-0.90186">
        <ele>9.27567</ele>
        <time>2025-05-06T14:19:32.362Z</time>
      </trkpt>
      <trkpt lat="45.88354" lon="-0.90157">
        <ele>9.28881</ele>
        <time>2025-05-06T14:19:52.365Z</time>
      </trkpt>
      <trkpt lat="45.88385" lon="-0.89915">
        <ele>10.59142</ele>
        <time>2025-05-06T14:22:45.571Z</time>
      </trkpt>
      <trkpt lat="45.88383" lon="-0.89902">
        <ele>10.71242</ele>
        <time>2025-05-06T14:22:55.103Z</time>
      </trkpt>
      <trkpt lat="45.8836" lon="-0.89886">
        <ele>11.07995</ele>
        <time>2025-05-06T14:23:21.496Z</time>
      </trkpt>
      <trkpt lat="45.88335" lon="-0.89874">
        <ele>11.6848</ele>
        <time>2025-05-06T14:23:49.464Z</time>
      </trkpt>
      <trkpt lat="45.88323" lon="-0.89872">
        <ele>12.01095</ele>
        <time>2025-05-06T14:24:02.448Z</time>
      </trkpt>
      <trkpt lat="45.88313" lon="-0.89875">
        <ele>12.30667</ele>
        <time>2025-05-06T14:24:13.496Z</time>
      </trkpt>
    </trkseg>
  </trk>
</gpx>